sensor_id;sensor_type;location;lat;lon;timestamp;temperature;humidity
2050;DHT22;8478;49.208;8.806;2022-07-10T00:00:28;19.50;99.90
2050;DHT22;8478;49.208;8.806;2022-07-10T00:02:54;19.50;99.90
2050;DHT22;8478;49.208;8.806;2022-07-10T00:05:20;19.50;99.90
2050;DHT22;8478;49.208;8.806;2022-07-10T00:07:47;19.50;99.90
2050;DHT22;8478;49.208;8.806;2022-07-10T00:10:13;19.50;99.90
2050;DHT22;8478;49.208;8.806;2022-07-10T00:12:39;19.50;99.90
2050;DHT22;8478;49.208;8.806;2022-07-10T00:15:05;19.50;99.90
2050;DHT22;8478;49.208;8.806;2022-07-10T00:17:32;19.50;99.90
2050;DHT22;8478;49.208;8.806;2022-07-10T00:19:57;19.50;99.90
2050;DHT22;8478;49.208;8.806;2022-07-10T00:22:23;19.50;99.90
2050;DHT22;8478;49.208;8.806;2022-07-10T00:24:49;19.50;99.90
2050;DHT22;8478;49.208;8.806;2022-07-10T00:27:16;19.50;99.90
2050;DHT22;8478;49.208;8.806;2022-07-10T00:29:42;19.50;99.90
2050;DHT22;8478;49.208;8.806;2022-07-10T00:32:09;19.50;99.90
2050;DHT22;8478;49.208;8.806;2022-07-10T00:34:34;19.50;99.90
2050;DHT22;8478;49.208;8.806;2022-07-10T00:37:01;19.50;99.90
2050;DHT22;8478;49.208;8.806;2022-07-10T00:39:27;19.50;99.90
2050;DHT22;8478;49.208;8.806;2022-07-10T00:41:52;19.50;99.90
2050;DHT22;8478;49.208;8.806;2022-07-10T00:44:18;19.40;99.90
2050;DHT22;8478;49.208;8.806;2022-07-10T00:46:44;19.50;99.90
2050;DHT22;8478;49.208;8.806;2022-07-10T00:49:09;19.40;99.90
2050;DHT22;8478;49.208;8.806;2022-07-10T00:51:35;19.40;99.90
2050;DHT22;8478;49.208;8.806;2022-07-10T00:54:01;19.40;99.90
2050;DHT22;8478;49.208;8.806;2022-07-10T00:56:28;19.40;99.90
2050;DHT22;8478;49.208;8.806;2022-07-10T00:58:54;19.40;99.90
2050;DHT22;8478;49.208;8.806;2022-07-10T01:01:21;19.40;99.90
2050;DHT22;8478;49.208;8.806;2022-07-10T01:03:48;19.40;99.90
2050;DHT22;8478;49.208;8.806;2022-07-10T01:06:15;19.40;99.90
2050;DHT22;8478;49.208;8.806;2022-07-10T01:08:42;19.40;99.90
2050;DHT22;8478;49.208;8.806;2022-07-10T01:11:09;19.40;99.90
2050;DHT22;8478;49.208;8.806;2022-07-10T01:13:34;19.40;99.90
2050;DHT22;8478;49.208;8.806;2022-07-10T01:16:00;19.40;99.90
2050;DHT22;8478;49.208;8.806;2022-07-10T01:18:26;19.40;99.90
2050;DHT22;8478;49.208;8.806;2022-07-10T01:20:53;19.40;99.90
2050;DHT22;8478;49.208;8.806;2022-07-10T01:23:19;19.40;99.90
2050;DHT22;8478;49.208;8.806;2022-07-10T01:25:45;19.40;99.90
2050;DHT22;8478;49.208;8.806;2022-07-10T01:28:11;19.40;99.90
2050;DHT22;8478;49.208;8.806;2022-07-10T01:30:36;19.40;99.90
2050;DHT22;8478;49.208;8.806;2022-07-10T01:33:02;19.30;99.90
2050;DHT22;8478;49.208;8.806;2022-07-10T01:35:28;19.30;99.90
2050;DHT22;8478;49.208;8.806;2022-07-10T01:37:54;19.30;99.90
2050;DHT22;8478;49.208;8.806;2022-07-10T01:40:19;19.30;99.90
2050;DHT22;8478;49.208;8.806;2022-07-10T01:42:45;19.30;99.90
2050;DHT22;8478;49.208;8.806;2022-07-10T01:45:11;19.30;99.90
2050;DHT22;8478;49.208;8.806;2022-07-10T01:47:37;19.30;99.90
2050;DHT22;8478;49.208;8.806;2022-07-10T01:50:04;19.30;99.90
2050;DHT22;8478;49.208;8.806;2022-07-10T01:52:30;19.30;99.90
2050;DHT22;8478;49.208;8.806;2022-07-10T01:54:55;19.30;99.90
2050;DHT22;8478;49.208;8.806;2022-07-10T01:57:21;19.30;99.90
2050;DHT22;8478;49.208;8.806;2022-07-10T01:59:47;19.30;99.90
2050;DHT22;8478;49.208;8.806;2022-07-10T02:02:13;19.20;99.90
2050;DHT22;8478;49.208;8.806;2022-07-10T02:04:38;19.20;99.90
2050;DHT22;8478;49.208;8.806;2022-07-10T02:09:33;19.20;99.90
2050;DHT22;8478;49.208;8.806;2022-07-10T02:11:59;19.20;99.90
2050;DHT22;8478;49.208;8.806;2022-07-10T02:14:24;19.20;99.90
2050;DHT22;8478;49.208;8.806;2022-07-10T02:16:50;19.20;99.90
2050;DHT22;8478;49.208;8.806;2022-07-10T02:19:16;19.20;99.90
2050;DHT22;8478;49.208;8.806;2022-07-10T02:21:42;19.20;99.90
2050;DHT22;8478;49.208;8.806;2022-07-10T02:24:07;19.20;99.90
2050;DHT22;8478;49.208;8.806;2022-07-10T02:26:33;19.20;99.90
2050;DHT22;8478;49.208;8.806;2022-07-10T02:28:58;19.20;99.90
2050;DHT22;8478;49.208;8.806;2022-07-10T02:31:24;19.20;99.90
2050;DHT22;8478;49.208;8.806;2022-07-10T02:33:50;19.20;99.90
2050;DHT22;8478;49.208;8.806;2022-07-10T02:36:15;19.20;99.90
2050;DHT22;8478;49.208;8.806;2022-07-10T02:38:41;19.20;99.90
2050;DHT22;8478;49.208;8.806;2022-07-10T02:41:07;19.20;99.90
2050;DHT22;8478;49.208;8.806;2022-07-10T02:43:33;19.20;99.90
2050;DHT22;8478;49.208;8.806;2022-07-10T02:45:58;19.20;99.90
2050;DHT22;8478;49.208;8.806;2022-07-10T02:48:24;19.20;99.90
2050;DHT22;8478;49.208;8.806;2022-07-10T02:50:50;19.20;99.90
2050;DHT22;8478;49.208;8.806;2022-07-10T02:53:15;19.20;99.90
2050;DHT22;8478;49.208;8.806;2022-07-10T02:55:41;19.20;99.90
2050;DHT22;8478;49.208;8.806;2022-07-10T02:58:07;19.20;99.90
2050;DHT22;8478;49.208;8.806;2022-07-10T03:00:35;19.20;99.90
2050;DHT22;8478;49.208;8.806;2022-07-10T03:03:01;19.10;99.90
2050;DHT22;8478;49.208;8.806;2022-07-10T03:05:26;19.10;99.90
2050;DHT22;8478;49.208;8.806;2022-07-10T03:07:52;19.10;99.90
2050;DHT22;8478;49.208;8.806;2022-07-10T03:10:18;19.10;99.90
2050;DHT22;8478;49.208;8.806;2022-07-10T03:12:44;19.10;99.90
2050;DHT22;8478;49.208;8.806;2022-07-10T03:15:10;19.10;99.90
2050;DHT22;8478;49.208;8.806;2022-07-10T03:17:36;19.10;99.90
2050;DHT22;8478;49.208;8.806;2022-07-10T03:20:01;19.10;99.90
2050;DHT22;8478;49.208;8.806;2022-07-10T03:22:27;19.10;99.90
2050;DHT22;8478;49.208;8.806;2022-07-10T03:24:54;19.10;99.90
2050;DHT22;8478;49.208;8.806;2022-07-10T03:27:20;19.10;99.90
2050;DHT22;8478;49.208;8.806;2022-07-10T03:29:45;19.10;99.90
2050;DHT22;8478;49.208;8.806;2022-07-10T03:32:11;19.10;99.90
2050;DHT22;8478;49.208;8.806;2022-07-10T03:34:37;19.10;99.90
2050;DHT22;8478;49.208;8.806;2022-07-10T03:37:03;19.10;99.90
2050;DHT22;8478;49.208;8.806;2022-07-10T03:39:29;19.10;99.90
2050;DHT22;8478;49.208;8.806;2022-07-10T03:41:55;19.10;99.90
2050;DHT22;8478;49.208;8.806;2022-07-10T03:44:20;19.00;99.90
2050;DHT22;8478;49.208;8.806;2022-07-10T03:46:46;19.10;99.90
2050;DHT22;8478;49.208;8.806;2022-07-10T03:49:11;19.10;99.90
2050;DHT22;8478;49.208;8.806;2022-07-10T03:51:37;19.10;99.90
2050;DHT22;8478;49.208;8.806;2022-07-10T03:54:03;19.10;99.90
2050;DHT22;8478;49.208;8.806;2022-07-10T03:56:29;19.10;99.90
2050;DHT22;8478;49.208;8.806;2022-07-10T03:59:13;19.10;99.90
2050;DHT22;8478;49.208;8.806;2022-07-10T04:01:38;19.00;99.90
2050;DHT22;8478;49.208;8.806;2022-07-10T04:04:04;19.10;99.90
2050;DHT22;8478;49.208;8.806;2022-07-10T04:06:30;19.10;99.90
2050;DHT22;8478;49.208;8.806;2022-07-10T04:08:55;19.10;99.90
2050;DHT22;8478;49.208;8.806;2022-07-10T04:11:21;19.00;99.90
2050;DHT22;8478;49.208;8.806;2022-07-10T04:13:46;19.10;99.90
2050;DHT22;8478;49.208;8.806;2022-07-10T04:16:12;19.00;99.90
2050;DHT22;8478;49.208;8.806;2022-07-10T04:18:42;19.10;99.90
2050;DHT22;8478;49.208;8.806;2022-07-10T04:21:08;19.00;99.90
2050;DHT22;8478;49.208;8.806;2022-07-10T04:23:34;19.00;99.90
2050;DHT22;8478;49.208;8.806;2022-07-10T04:26:00;19.00;99.90
2050;DHT22;8478;49.208;8.806;2022-07-10T04:28:27;19.00;99.90
2050;DHT22;8478;49.208;8.806;2022-07-10T04:30:53;19.00;99.90
2050;DHT22;8478;49.208;8.806;2022-07-10T04:33:18;19.00;99.90
2050;DHT22;8478;49.208;8.806;2022-07-10T04:35:44;19.00;99.90
2050;DHT22;8478;49.208;8.806;2022-07-10T04:38:10;19.00;99.90
2050;DHT22;8478;49.208;8.806;2022-07-10T04:40:35;19.00;99.90
2050;DHT22;8478;49.208;8.806;2022-07-10T04:43:01;19.00;99.90
2050;DHT22;8478;49.208;8.806;2022-07-10T04:45:27;19.00;99.90
2050;DHT22;8478;49.208;8.806;2022-07-10T04:47:52;19.00;99.90
2050;DHT22;8478;49.208;8.806;2022-07-10T04:50:18;18.90;99.90
2050;DHT22;8478;49.208;8.806;2022-07-10T04:52:44;19.00;99.90
2050;DHT22;8478;49.208;8.806;2022-07-10T04:55:09;19.00;99.90
2050;DHT22;8478;49.208;8.806;2022-07-10T04:57:35;19.00;99.90
2050;DHT22;8478;49.208;8.806;2022-07-10T05:00:01;19.00;99.90
2050;DHT22;8478;49.208;8.806;2022-07-10T05:02:27;19.00;99.90
2050;DHT22;8478;49.208;8.806;2022-07-10T05:04:53;19.00;99.90
2050;DHT22;8478;49.208;8.806;2022-07-10T05:07:18;19.00;99.90
2050;DHT22;8478;49.208;8.806;2022-07-10T05:09:44;19.00;99.90
2050;DHT22;8478;49.208;8.806;2022-07-10T05:12:09;19.00;99.90
2050;DHT22;8478;49.208;8.806;2022-07-10T05:14:35;18.90;99.90
2050;DHT22;8478;49.208;8.806;2022-07-10T05:17:01;18.90;99.90
2050;DHT22;8478;49.208;8.806;2022-07-10T05:19:27;18.90;99.90
2050;DHT22;8478;49.208;8.806;2022-07-10T05:21:52;18.90;99.90
2050;DHT22;8478;49.208;8.806;2022-07-10T05:24:18;18.90;99.90
2050;DHT22;8478;49.208;8.806;2022-07-10T05:26:44;18.90;99.90
2050;DHT22;8478;49.208;8.806;2022-07-10T05:29:09;18.90;99.90
2050;DHT22;8478;49.208;8.806;2022-07-10T05:31:35;18.90;99.90
2050;DHT22;8478;49.208;8.806;2022-07-10T05:34:01;18.90;99.90
2050;DHT22;8478;49.208;8.806;2022-07-10T05:36:26;18.90;99.90
2050;DHT22;8478;49.208;8.806;2022-07-10T05:38:52;18.90;99.90
2050;DHT22;8478;49.208;8.806;2022-07-10T05:41:18;18.90;99.90
2050;DHT22;8478;49.208;8.806;2022-07-10T05:43:43;18.90;99.90
2050;DHT22;8478;49.208;8.806;2022-07-10T05:46:09;18.90;99.90
2050;DHT22;8478;49.208;8.806;2022-07-10T05:48:35;18.90;99.90
2050;DHT22;8478;49.208;8.806;2022-07-10T05:51:00;18.90;99.90
2050;DHT22;8478;49.208;8.806;2022-07-10T05:53:26;18.90;99.90
2050;DHT22;8478;49.208;8.806;2022-07-10T05:55:52;18.90;99.90
2050;DHT22;8478;49.208;8.806;2022-07-10T05:58:18;18.90;99.90
2050;DHT22;8478;49.208;8.806;2022-07-10T06:00:43;18.90;99.90
2050;DHT22;8478;49.208;8.806;2022-07-10T06:03:11;18.90;99.90
2050;DHT22;8478;49.208;8.806;2022-07-10T06:05:37;18.90;99.90
2050;DHT22;8478;49.208;8.806;2022-07-10T06:08:03;18.90;99.90
2050;DHT22;8478;49.208;8.806;2022-07-10T06:10:29;18.90;99.90
2050;DHT22;8478;49.208;8.806;2022-07-10T06:12:55;18.90;99.90
2050;DHT22;8478;49.208;8.806;2022-07-10T06:15:21;18.90;99.90
2050;DHT22;8478;49.208;8.806;2022-07-10T06:17:46;18.90;99.90
2050;DHT22;8478;49.208;8.806;2022-07-10T06:20:12;18.90;99.90
2050;DHT22;8478;49.208;8.806;2022-07-10T06:22:38;18.90;99.90
2050;DHT22;8478;49.208;8.806;2022-07-10T06:25:07;18.90;99.90
2050;DHT22;8478;49.208;8.806;2022-07-10T06:27:33;18.90;99.90
2050;DHT22;8478;49.208;8.806;2022-07-10T06:29:59;18.90;99.90
2050;DHT22;8478;49.208;8.806;2022-07-10T06:32:25;18.90;99.90
2050;DHT22;8478;49.208;8.806;2022-07-10T06:34:52;18.90;99.90
2050;DHT22;8478;49.208;8.806;2022-07-10T06:37:18;18.90;99.90
2050;DHT22;8478;49.208;8.806;2022-07-10T06:39:45;18.90;99.90
2050;DHT22;8478;49.208;8.806;2022-07-10T06:42:11;18.90;99.90
2050;DHT22;8478;49.208;8.806;2022-07-10T06:44:37;18.90;99.90
2050;DHT22;8478;49.208;8.806;2022-07-10T06:47:03;18.90;99.90
2050;DHT22;8478;49.208;8.806;2022-07-10T06:49:48;18.90;99.90
2050;DHT22;8478;49.208;8.806;2022-07-10T06:52:14;18.90;99.90
2050;DHT22;8478;49.208;8.806;2022-07-10T06:54:41;18.90;99.90
2050;DHT22;8478;49.208;8.806;2022-07-10T06:57:06;18.90;99.90
2050;DHT22;8478;49.208;8.806;2022-07-10T06:59:32;18.90;99.90
2050;DHT22;8478;49.208;8.806;2022-07-10T07:01:58;18.90;99.90
2050;DHT22;8478;49.208;8.806;2022-07-10T07:04:24;18.90;99.90
2050;DHT22;8478;49.208;8.806;2022-07-10T07:06:50;18.90;99.90
2050;DHT22;8478;49.208;8.806;2022-07-10T07:09:16;18.90;99.90
2050;DHT22;8478;49.208;8.806;2022-07-10T07:11:41;18.90;99.90
2050;DHT22;8478;49.208;8.806;2022-07-10T07:14:07;18.90;99.90
2050;DHT22;8478;49.208;8.806;2022-07-10T07:16:32;18.90;99.90
2050;DHT22;8478;49.208;8.806;2022-07-10T07:19:08;18.90;99.90
2050;DHT22;8478;49.208;8.806;2022-07-10T07:21:35;18.90;99.90
2050;DHT22;8478;49.208;8.806;2022-07-10T07:24:19;18.90;99.90
2050;DHT22;8478;49.208;8.806;2022-07-10T07:26:46;18.90;99.90
2050;DHT22;8478;49.208;8.806;2022-07-10T07:29:15;18.90;99.90
2050;DHT22;8478;49.208;8.806;2022-07-10T07:31:41;18.90;99.90
2050;DHT22;8478;49.208;8.806;2022-07-10T07:34:07;18.90;99.90
2050;DHT22;8478;49.208;8.806;2022-07-10T07:36:33;18.80;99.90
2050;DHT22;8478;49.208;8.806;2022-07-10T07:38:59;18.80;99.90
2050;DHT22;8478;49.208;8.806;2022-07-10T07:41:25;18.80;99.90
2050;DHT22;8478;49.208;8.806;2022-07-10T07:43:50;18.80;99.90
2050;DHT22;8478;49.208;8.806;2022-07-10T07:46:18;18.80;99.90
2050;DHT22;8478;49.208;8.806;2022-07-10T07:48:44;18.80;99.90
2050;DHT22;8478;49.208;8.806;2022-07-10T07:51:09;18.80;99.90
2050;DHT22;8478;49.208;8.806;2022-07-10T07:53:35;18.80;99.90
2050;DHT22;8478;49.208;8.806;2022-07-10T07:56:01;18.80;99.90
2050;DHT22;8478;49.208;8.806;2022-07-10T07:58:27;18.80;99.90
2050;DHT22;8478;49.208;8.806;2022-07-10T08:00:52;18.80;99.90
2050;DHT22;8478;49.208;8.806;2022-07-10T08:03:18;18.80;99.90
2050;DHT22;8478;49.208;8.806;2022-07-10T08:05:43;18.80;99.90
2050;DHT22;8478;49.208;8.806;2022-07-10T08:08:09;18.80;99.90
2050;DHT22;8478;49.208;8.806;2022-07-10T08:10:36;18.80;99.90
2050;DHT22;8478;49.208;8.806;2022-07-10T08:13:03;18.80;99.90
2050;DHT22;8478;49.208;8.806;2022-07-10T08:15:29;18.80;99.90
2050;DHT22;8478;49.208;8.806;2022-07-10T08:17:57;18.80;99.90
2050;DHT22;8478;49.208;8.806;2022-07-10T08:20:24;18.80;99.90
2050;DHT22;8478;49.208;8.806;2022-07-10T08:22:50;18.80;99.90
2050;DHT22;8478;49.208;8.806;2022-07-10T08:25:16;18.80;99.90
2050;DHT22;8478;49.208;8.806;2022-07-10T08:27:42;18.80;99.90
2050;DHT22;8478;49.208;8.806;2022-07-10T08:30:09;18.80;99.90
2050;DHT22;8478;49.208;8.806;2022-07-10T08:32:35;18.80;99.90
2050;DHT22;8478;49.208;8.806;2022-07-10T08:35:02;18.80;99.90
2050;DHT22;8478;49.208;8.806;2022-07-10T08:37:28;18.80;99.90
2050;DHT22;8478;49.208;8.806;2022-07-10T08:39:54;18.80;99.90
2050;DHT22;8478;49.208;8.806;2022-07-10T08:42:20;18.80;99.90
2050;DHT22;8478;49.208;8.806;2022-07-10T08:44:46;18.80;99.90
2050;DHT22;8478;49.208;8.806;2022-07-10T08:47:13;18.80;99.90
2050;DHT22;8478;49.208;8.806;2022-07-10T08:49:46;18.80;99.90
2050;DHT22;8478;49.208;8.806;2022-07-10T08:54:46;18.80;99.90
2050;DHT22;8478;49.208;8.806;2022-07-10T08:57:12;18.80;99.90
2050;DHT22;8478;49.208;8.806;2022-07-10T08:59:38;18.80;99.90
2050;DHT22;8478;49.208;8.806;2022-07-10T09:02:03;18.80;99.90
2050;DHT22;8478;49.208;8.806;2022-07-10T09:04:29;18.80;99.90
2050;DHT22;8478;49.208;8.806;2022-07-10T09:06:55;18.80;99.90
2050;DHT22;8478;49.208;8.806;2022-07-10T09:09:21;18.80;99.90
2050;DHT22;8478;49.208;8.806;2022-07-10T09:11:47;18.80;99.90
2050;DHT22;8478;49.208;8.806;2022-07-10T09:14:17;18.80;99.90
2050;DHT22;8478;49.208;8.806;2022-07-10T09:16:44;18.80;99.90
2050;DHT22;8478;49.208;8.806;2022-07-10T09:19:24;18.80;99.90
2050;DHT22;8478;49.208;8.806;2022-07-10T09:21:52;18.80;99.90
2050;DHT22;8478;49.208;8.806;2022-07-10T09:24:18;18.80;99.90
2050;DHT22;8478;49.208;8.806;2022-07-10T09:29:23;18.80;99.90
2050;DHT22;8478;49.208;8.806;2022-07-10T09:31:52;18.80;99.90
2050;DHT22;8478;49.208;8.806;2022-07-10T09:34:34;18.80;99.90
2050;DHT22;8478;49.208;8.806;2022-07-10T09:42:45;18.80;99.90
2050;DHT22;8478;49.208;8.806;2022-07-10T09:45:14;18.80;99.90
2050;DHT22;8478;49.208;8.806;2022-07-10T09:47:53;18.80;99.90
2050;DHT22;8478;49.208;8.806;2022-07-10T09:50:31;18.80;99.90
2050;DHT22;8478;49.208;8.806;2022-07-10T09:53:03;18.80;99.90
2050;DHT22;8478;49.208;8.806;2022-07-10T09:55:31;18.70;99.90
2050;DHT22;8478;49.208;8.806;2022-07-10T09:57:59;18.80;99.90
2050;DHT22;8478;49.208;8.806;2022-07-10T10:00:38;18.80;99.90
2050;DHT22;8478;49.208;8.806;2022-07-10T10:03:07;18.70;99.90
2050;DHT22;8478;49.208;8.806;2022-07-10T10:05:55;18.80;99.90
2050;DHT22;8478;49.208;8.806;2022-07-10T10:08:37;18.70;99.90
2050;DHT22;8478;49.208;8.806;2022-07-10T10:11:05;18.70;99.90
2050;DHT22;8478;49.208;8.806;2022-07-10T10:13:34;18.80;99.90
2050;DHT22;8478;49.208;8.806;2022-07-10T10:16:01;18.70;99.90
2050;DHT22;8478;49.208;8.806;2022-07-10T10:18:27;18.80;99.90
2050;DHT22;8478;49.208;8.806;2022-07-10T10:20:55;18.80;99.90
2050;DHT22;8478;49.208;8.806;2022-07-10T10:23:25;18.80;99.90
2050;DHT22;8478;49.208;8.806;2022-07-10T10:25:55;18.70;99.90
2050;DHT22;8478;49.208;8.806;2022-07-10T10:28:23;18.70;99.90
2050;DHT22;8478;49.208;8.806;2022-07-10T10:30:55;18.70;99.90
2050;DHT22;8478;49.208;8.806;2022-07-10T10:36:03;18.70;99.90
2050;DHT22;8478;49.208;8.806;2022-07-10T10:41:29;18.70;99.90
2050;DHT22;8478;49.208;8.806;2022-07-10T10:46:58;18.70;99.90
2050;DHT22;8478;49.208;8.806;2022-07-10T10:49:54;18.80;99.90
2050;DHT22;8478;49.208;8.806;2022-07-10T10:52:23;18.80;99.90
2050;DHT22;8478;49.208;8.806;2022-07-10T11:00:02;18.80;99.90
2050;DHT22;8478;49.208;8.806;2022-07-10T11:02:33;18.80;99.90
2050;DHT22;8478;49.208;8.806;2022-07-10T11:08:03;18.80;99.90
2050;DHT22;8478;49.208;8.806;2022-07-10T11:10:44;18.80;99.90
2050;DHT22;8478;49.208;8.806;2022-07-10T11:13:12;18.80;99.90
2050;DHT22;8478;49.208;8.806;2022-07-10T11:15:43;18.80;99.90
2050;DHT22;8478;49.208;8.806;2022-07-10T11:18:11;18.80;99.90
2050;DHT22;8478;49.208;8.806;2022-07-10T11:20:43;18.80;99.90
2050;DHT22;8478;49.208;8.806;2022-07-10T11:28:51;18.80;99.90
2050;DHT22;8478;49.208;8.806;2022-07-10T11:31:27;18.80;99.90
2050;DHT22;8478;49.208;8.806;2022-07-10T11:33:54;18.80;99.90
2050;DHT22;8478;49.208;8.806;2022-07-10T11:36:25;18.80;99.90
2050;DHT22;8478;49.208;8.806;2022-07-10T11:38:57;18.80;99.90
2050;DHT22;8478;49.208;8.806;2022-07-10T11:41:24;18.80;99.90
2050;DHT22;8478;49.208;8.806;2022-07-10T11:44:13;18.80;99.90
2050;DHT22;8478;49.208;8.806;2022-07-10T11:46:39;18.80;99.90
2050;DHT22;8478;49.208;8.806;2022-07-10T11:49:07;18.80;99.90
2050;DHT22;8478;49.208;8.806;2022-07-10T11:51:36;18.80;99.90
2050;DHT22;8478;49.208;8.806;2022-07-10T11:56:39;18.80;99.90
2050;DHT22;8478;49.208;8.806;2022-07-10T11:59:10;18.80;99.90
2050;DHT22;8478;49.208;8.806;2022-07-10T12:04:09;18.80;99.90
2050;DHT22;8478;49.208;8.806;2022-07-10T12:06:37;18.80;99.90
2050;DHT22;8478;49.208;8.806;2022-07-10T12:09:12;18.80;99.90
2050;DHT22;8478;49.208;8.806;2022-07-10T12:11:39;18.80;99.90
2050;DHT22;8478;49.208;8.806;2022-07-10T12:14:17;18.80;99.90
2050;DHT22;8478;49.208;8.806;2022-07-10T12:16:52;18.80;99.90
2050;DHT22;8478;49.208;8.806;2022-07-10T12:19:20;18.70;99.90
2050;DHT22;8478;49.208;8.806;2022-07-10T12:21:47;18.80;99.90
2050;DHT22;8478;49.208;8.806;2022-07-10T12:24:15;18.80;99.90
2050;DHT22;8478;49.208;8.806;2022-07-10T12:26:43;18.80;99.90
2050;DHT22;8478;49.208;8.806;2022-07-10T12:31:47;18.80;99.90
2050;DHT22;8478;49.208;8.806;2022-07-10T12:34:13;18.80;99.90
2050;DHT22;8478;49.208;8.806;2022-07-10T12:39:20;18.80;99.90
2050;DHT22;8478;49.208;8.806;2022-07-10T12:42:13;18.80;99.90
2050;DHT22;8478;49.208;8.806;2022-07-10T12:44:42;18.80;99.90
2050;DHT22;8478;49.208;8.806;2022-07-10T12:47:08;18.80;99.90
2050;DHT22;8478;49.208;8.806;2022-07-10T12:49:54;18.80;99.90
2050;DHT22;8478;49.208;8.806;2022-07-10T12:52:31;18.80;99.90
2050;DHT22;8478;49.208;8.806;2022-07-10T12:57:57;18.80;99.90
2050;DHT22;8478;49.208;8.806;2022-07-10T13:00:24;18.80;99.90
2050;DHT22;8478;49.208;8.806;2022-07-10T13:02:58;18.80;99.90
2050;DHT22;8478;49.208;8.806;2022-07-10T13:05:27;18.80;99.90
2050;DHT22;8478;49.208;8.806;2022-07-10T13:08:22;18.80;99.90
2050;DHT22;8478;49.208;8.806;2022-07-10T13:10:55;18.90;99.90
2050;DHT22;8478;49.208;8.806;2022-07-10T13:13:22;18.90;99.90
2050;DHT22;8478;49.208;8.806;2022-07-10T13:15:48;18.80;99.90
2050;DHT22;8478;49.208;8.806;2022-07-10T13:18:25;18.90;99.90
2050;DHT22;8478;49.208;8.806;2022-07-10T13:20:53;18.90;99.90
2050;DHT22;8478;49.208;8.806;2022-07-10T13:23:19;18.90;99.90
2050;DHT22;8478;49.208;8.806;2022-07-10T13:25:55;18.90;99.90
2050;DHT22;8478;49.208;8.806;2022-07-10T13:28:20;18.90;99.90
2050;DHT22;8478;49.208;8.806;2022-07-10T13:30:47;18.90;99.90
2050;DHT22;8478;49.208;8.806;2022-07-10T13:33:13;18.90;99.90
2050;DHT22;8478;49.208;8.806;2022-07-10T13:35:39;18.90;99.90
2050;DHT22;8478;49.208;8.806;2022-07-10T13:38:05;18.90;99.90
2050;DHT22;8478;49.208;8.806;2022-07-10T13:40:34;18.90;99.90
2050;DHT22;8478;49.208;8.806;2022-07-10T13:43:00;18.90;99.90
2050;DHT22;8478;49.208;8.806;2022-07-10T13:45:26;18.80;99.90
2050;DHT22;8478;49.208;8.806;2022-07-10T13:47:57;18.90;99.90
2050;DHT22;8478;49.208;8.806;2022-07-10T13:50:23;18.90;99.90
2050;DHT22;8478;49.208;8.806;2022-07-10T13:52:50;18.90;99.90
2050;DHT22;8478;49.208;8.806;2022-07-10T13:55:15;18.90;99.90
2050;DHT22;8478;49.208;8.806;2022-07-10T13:57:41;18.90;99.90
2050;DHT22;8478;49.208;8.806;2022-07-10T14:00:08;18.90;99.90
2050;DHT22;8478;49.208;8.806;2022-07-10T14:02:33;18.90;99.90
2050;DHT22;8478;49.208;8.806;2022-07-10T14:05:00;18.90;99.90
2050;DHT22;8478;49.208;8.806;2022-07-10T14:07:25;18.90;99.90
2050;DHT22;8478;49.208;8.806;2022-07-10T14:09:51;18.90;99.90
2050;DHT22;8478;49.208;8.806;2022-07-10T14:12:17;18.90;99.90
2050;DHT22;8478;49.208;8.806;2022-07-10T14:14:42;18.90;99.90
2050;DHT22;8478;49.208;8.806;2022-07-10T14:17:08;18.90;99.90
2050;DHT22;8478;49.208;8.806;2022-07-10T14:19:35;19.00;99.90
2050;DHT22;8478;49.208;8.806;2022-07-10T14:22:01;18.90;99.90
2050;DHT22;8478;49.208;8.806;2022-07-10T14:24:26;18.90;99.90
2050;DHT22;8478;49.208;8.806;2022-07-10T14:26:52;18.90;99.90
2050;DHT22;8478;49.208;8.806;2022-07-10T14:29:19;19.00;99.90
2050;DHT22;8478;49.208;8.806;2022-07-10T14:31:45;18.90;99.90
2050;DHT22;8478;49.208;8.806;2022-07-10T14:34:17;19.00;99.90
2050;DHT22;8478;49.208;8.806;2022-07-10T14:36:42;19.00;99.90
2050;DHT22;8478;49.208;8.806;2022-07-10T14:39:08;19.00;99.90
2050;DHT22;8478;49.208;8.806;2022-07-10T14:41:34;19.00;99.90
2050;DHT22;8478;49.208;8.806;2022-07-10T14:43:59;19.00;99.90
2050;DHT22;8478;49.208;8.806;2022-07-10T14:46:26;19.00;99.90
2050;DHT22;8478;49.208;8.806;2022-07-10T14:48:51;19.00;99.90
2050;DHT22;8478;49.208;8.806;2022-07-10T14:51:17;19.00;99.90
2050;DHT22;8478;49.208;8.806;2022-07-10T14:53:43;19.00;99.90
2050;DHT22;8478;49.208;8.806;2022-07-10T14:56:11;19.00;99.90
2050;DHT22;8478;49.208;8.806;2022-07-10T14:58:37;19.00;99.90
2050;DHT22;8478;49.208;8.806;2022-07-10T15:01:02;19.00;99.90
2050;DHT22;8478;49.208;8.806;2022-07-10T15:03:28;19.00;99.90
2050;DHT22;8478;49.208;8.806;2022-07-10T15:05:54;19.00;99.90
2050;DHT22;8478;49.208;8.806;2022-07-10T15:08:23;19.00;99.90
2050;DHT22;8478;49.208;8.806;2022-07-10T15:10:49;19.10;99.90
2050;DHT22;8478;49.208;8.806;2022-07-10T15:13:15;19.10;99.90
2050;DHT22;8478;49.208;8.806;2022-07-10T15:15:41;19.00;99.90
2050;DHT22;8478;49.208;8.806;2022-07-10T15:18:07;19.00;99.90
2050;DHT22;8478;49.208;8.806;2022-07-10T15:20:33;19.10;99.90
2050;DHT22;8478;49.208;8.806;2022-07-10T15:22:59;19.10;99.90
2050;DHT22;8478;49.208;8.806;2022-07-10T15:25:25;19.10;99.90
2050;DHT22;8478;49.208;8.806;2022-07-10T15:27:51;19.10;99.90
2050;DHT22;8478;49.208;8.806;2022-07-10T15:30:18;19.10;99.90
2050;DHT22;8478;49.208;8.806;2022-07-10T15:32:44;19.10;99.90
2050;DHT22;8478;49.208;8.806;2022-07-10T15:35:11;19.10;99.90
2050;DHT22;8478;49.208;8.806;2022-07-10T15:37:37;19.10;99.90
2050;DHT22;8478;49.208;8.806;2022-07-10T15:40:03;19.10;99.90
2050;DHT22;8478;49.208;8.806;2022-07-10T15:42:28;19.10;99.90
2050;DHT22;8478;49.208;8.806;2022-07-10T15:44:54;19.10;99.90
2050;DHT22;8478;49.208;8.806;2022-07-10T15:47:20;19.10;99.90
2050;DHT22;8478;49.208;8.806;2022-07-10T15:49:45;19.10;99.90
2050;DHT22;8478;49.208;8.806;2022-07-10T15:52:11;19.10;99.90
2050;DHT22;8478;49.208;8.806;2022-07-10T15:54:37;19.10;99.90
2050;DHT22;8478;49.208;8.806;2022-07-10T15:57:03;19.10;99.90
2050;DHT22;8478;49.208;8.806;2022-07-10T15:59:29;19.10;99.90
2050;DHT22;8478;49.208;8.806;2022-07-10T16:01:55;19.10;99.90
2050;DHT22;8478;49.208;8.806;2022-07-10T16:04:22;19.10;99.90
2050;DHT22;8478;49.208;8.806;2022-07-10T16:06:49;19.20;99.90
2050;DHT22;8478;49.208;8.806;2022-07-10T16:09:16;19.20;99.90
2050;DHT22;8478;49.208;8.806;2022-07-10T16:11:42;19.20;99.90
2050;DHT22;8478;49.208;8.806;2022-07-10T16:14:08;19.20;99.90
2050;DHT22;8478;49.208;8.806;2022-07-10T16:16:34;19.20;99.90
2050;DHT22;8478;49.208;8.806;2022-07-10T16:19:01;19.20;99.90
2050;DHT22;8478;49.208;8.806;2022-07-10T16:21:27;19.20;99.90
2050;DHT22;8478;49.208;8.806;2022-07-10T16:23:53;19.20;99.90
2050;DHT22;8478;49.208;8.806;2022-07-10T16:26:18;19.20;99.90
2050;DHT22;8478;49.208;8.806;2022-07-10T16:28:45;19.20;99.90
2050;DHT22;8478;49.208;8.806;2022-07-10T16:31:11;19.20;99.90
2050;DHT22;8478;49.208;8.806;2022-07-10T16:33:37;19.20;99.90
2050;DHT22;8478;49.208;8.806;2022-07-10T16:36:05;19.20;99.90
2050;DHT22;8478;49.208;8.806;2022-07-10T16:38:31;19.20;99.90
2050;DHT22;8478;49.208;8.806;2022-07-10T16:40:57;19.20;99.90
2050;DHT22;8478;49.208;8.806;2022-07-10T16:43:23;19.20;99.90
2050;DHT22;8478;49.208;8.806;2022-07-10T16:45:53;19.20;99.90
2050;DHT22;8478;49.208;8.806;2022-07-10T16:48:18;19.20;99.90
2050;DHT22;8478;49.208;8.806;2022-07-10T16:50:44;19.20;99.90